Indianapolis, IN

8:25 AM EDT on September 19, 2019 (GMT -0400)
Indianapolis Terry

Weather History for KTYQ - May, 2019

Change the Weather History Date:

Monday, May 27, 2019

  Actual Average (KEYE) Record (KEYE)
Temperature  
Mean Temperature 68 °F -  
Max Temperature 79 °F 70 °F 94 °F (2018)
Min Temperature 56 °F 53 °F 46 °F (1999)
Cooling Degree Days 2    
Growing Degree Days 18 (Base 50)    
Moisture  
Dew Point 65 °F    
Average Humidity 89    
Maximum Humidity 100    
Minimum Humidity 66    
Precipitation  
Precipitation 0.32 in - - ()
Sea Level Pressure  
Sea Level Pressure 29.96 in    
Wind  
Wind Speed 4 mph ()    
Max Wind Speed 15 mph    
Max Gust Speed 25 mph    
Visibility 9.3 miles    
Events Rain , Thunderstorm    
Averages and records for this station are not official NWS values.
T = Trace of Precipitation, MM = Missing Value Source: Averaged Metar Reports

Daily Weather History Graph

Daily Weather History Graph

Search for Another Location

Airport or City:

Astronomy

May. 27, 2019 Rise Set
Actual Time 6:20 AM EDT 9:03 PM EDT
Civil Twilight 5:49 AM EDT 9:35 PM EDT
Nautical Twilight 5:09 AM EDT 10:15 PM EDT
Astronomical Twilight 4:24 AM EDT 11:00 PM EDT
Moon 3:04 AM EDT (5/27) 2:16 PM EDT (5/27)
Length of Visible Light 15h 46m
Length of Day
14h 43m
Last Quarter, 41% of the Moon is Illuminated
May 27
Last Quarter
Jun 3
New
Jun 10
First Quarter
Jun 17
Full
Jun 25
Last Quarter

Hourly Weather History & Observations

Time (EDT) Temp. Dew Point Humidity Pressure Visibility Wind Dir Wind Speed Gust Speed Precip Events Conditions
12:15 AM 60.8 °F 60.8 °F 100% 30.08 in 10.0 mi Calm Calm - N/A   Clear
12:35 AM 60.8 °F 60.8 °F 100% 30.08 in 10.0 mi Calm Calm - N/A   Clear
12:55 AM 60.4 °F 60.4 °F 100% 30.08 in 10.0 mi Calm Calm - N/A   Clear
1:15 AM 60.1 °F 60.1 °F 100% 30.07 in 10.0 mi Calm Calm - N/A   Clear
1:35 AM 60.1 °F 60.1 °F 100% 30.08 in 10.0 mi Calm Calm - N/A   Clear
1:55 AM 59.9 °F 59.9 °F 100% 30.08 in 10.0 mi Calm Calm - N/A   Clear
2:15 AM 59.4 °F 59.4 °F 100% 30.08 in 10.0 mi Calm Calm - N/A   Clear
2:35 AM 58.6 °F 58.6 °F 100% 30.08 in 10.0 mi Calm Calm - N/A   Clear
2:55 AM 58.8 °F 58.8 °F 100% 30.07 in 10.0 mi Calm Calm - N/A   Clear
3:15 AM 58.3 °F 58.3 °F 100% 30.07 in 10.0 mi Calm Calm - N/A   Clear
3:35 AM 58.1 °F 58.1 °F 100% 30.06 in 7.0 mi Calm Calm - N/A   Clear
3:55 AM 58.3 °F 58.3 °F 100% 30.06 in 10.0 mi Calm Calm - N/A   Clear
4:15 AM 58.1 °F 58.1 °F 100% 30.06 in 10.0 mi Calm Calm - N/A   Clear
4:35 AM 57.7 °F 57.7 °F 100% 30.06 in 7.0 mi Calm Calm - N/A   Clear
4:55 AM 57.7 °F 57.7 °F 100% 30.06 in 10.0 mi Calm Calm - N/A   Clear
5:15 AM 56.8 °F 56.8 °F 100% 30.06 in 10.0 mi Calm Calm - N/A   Clear
5:35 AM 56.7 °F 56.7 °F 100% 30.07 in 10.0 mi Calm Calm - N/A   Clear
5:55 AM 56.7 °F 56.7 °F 100% 30.07 in 10.0 mi Calm Calm - N/A   Clear
6:15 AM 56.5 °F 56.5 °F 100% 30.07 in 7.0 mi Calm Calm - N/A   Clear
6:35 AM 56.5 °F 56.5 °F 100% 30.06 in 5.0 mi Calm Calm - N/A   Clear
6:55 AM 56.1 °F 56.1 °F 100% 30.06 in 5.0 mi Calm Calm - N/A   Clear
7:15 AM 57.7 °F 57.7 °F 100% 30.06 in 4.0 mi East 3.5 mph - N/A   Clear
7:35 AM 60.4 °F 60.4 °F 100% 30.07 in 7.0 mi Calm Calm - N/A   Clear
7:55 AM 61.9 °F 61.9 °F 100% 30.08 in 7.0 mi Calm Calm - N/A   Clear
8:15 AM 63.5 °F 63.5 °F 100% 30.08 in 10.0 mi ESE 3.5 mph - N/A   Clear
8:35 AM 63.3 °F 63.0 °F 99% 30.07 in 10.0 mi East 6.9 mph - N/A   Clear
8:55 AM 65.5 °F 64.0 °F 95% 30.08 in 10.0 mi ESE 5.8 mph - N/A   Scattered Clouds
9:15 AM 65.8 °F 64.4 °F 95% 30.08 in 10.0 mi ESE 4.6 mph - N/A   Mostly Cloudy
9:35 AM 67.6 °F 64.4 °F 89% 30.07 in 10.0 mi ESE 6.9 mph - N/A   Scattered Clouds
9:55 AM 68.5 °F 64.4 °F 87% 30.07 in 10.0 mi ESE 5.8 mph - N/A   Clear
10:15 AM 69.6 °F 64.6 °F 84% 30.06 in 10.0 mi SE 6.9 mph - N/A   Clear
10:35 AM 70.7 °F 63.5 °F 78% 30.06 in 10.0 mi ESE 5.8 mph - N/A   Clear
10:55 AM 71.6 °F 63.9 °F 76% 30.04 in 10.0 mi ESE 6.9 mph - N/A   Clear
11:15 AM 72.5 °F 63.5 °F 73% 30.03 in 10.0 mi SE 9.2 mph - N/A   Clear
11:35 AM 73.6 °F 64.2 °F 72% 30.02 in 10.0 mi SSE 8.1 mph - N/A   Clear
11:55 AM 74.3 °F 64.0 °F 70% 30.02 in 10.0 mi SE 5.8 mph - N/A   Scattered Clouds
12:15 PM 75.4 °F 64.2 °F 68% 30.02 in 10.0 mi SSE 10.4 mph - N/A   Scattered Clouds
12:35 PM 76.1 °F 64.9 °F 68% 30.01 in 10.0 mi South 8.1 mph - N/A   Scattered Clouds
12:55 PM 75.4 °F 64.9 °F 70% 30.00 in 10.0 mi SSE 10.4 mph - N/A   Mostly Cloudy
1:15 PM 77.0 °F 65.5 °F 67% 29.99 in 10.0 mi South 10.4 mph - N/A   Scattered Clouds
1:35 PM 77.4 °F 66.2 °F 68% 29.98 in 10.0 mi SSE 10.4 mph - N/A   Scattered Clouds
1:55 PM 77.5 °F 65.3 °F 66% 29.97 in 10.0 mi South 8.1 mph - N/A   Scattered Clouds
2:15 PM 77.0 °F 66.4 °F 70% 29.97 in 10.0 mi South 10.4 mph - N/A   Mostly Cloudy
2:35 PM 78.6 °F 67.3 °F 68% 29.95 in 10.0 mi SSE 10.4 mph - N/A   Mostly Cloudy
2:55 PM 77.9 °F 66.7 °F 68% 29.94 in 10.0 mi SSE 10.4 mph - N/A   Mostly Cloudy
3:15 PM 77.7 °F 67.3 °F 70% 29.92 in 10.0 mi SSE 9.2 mph - N/A   Mostly Cloudy
3:35 PM 73.8 °F 68.7 °F 84% 29.92 in 10.0 mi South 10.4 mph - N/A Rain Light Rain
3:55 PM 68.2 °F 68.2 °F 100% 29.92 in 2.5 mi SSW 6.9 mph 25.3 mph 0.08 in Rain Rain
4:15 PM 71.2 °F 71.2 °F 100% 29.90 in 10.0 mi South 4.6 mph - N/A Thunderstorm Scattered Clouds
4:35 PM 74.5 °F 73.2 °F 96% 29.88 in 10.0 mi SSE 5.8 mph - N/A   Clear
4:55 PM 76.1 °F 72.7 °F 89% 29.87 in 10.0 mi SSE 8.1 mph - N/A   Clear
5:15 PM 75.7 °F 72.0 °F 88% 29.86 in 10.0 mi SE 9.2 mph - N/A   Clear
5:35 PM 77.0 °F 73.4 °F 89% 29.86 in 10.0 mi SSE 10.4 mph - N/A   Scattered Clouds
5:55 PM 77.5 °F 73.8 °F 88% 29.85 in 10.0 mi SSE 10.4 mph - N/A   Clear
6:15 PM 77.7 °F 73.6 °F 87% 29.83 in 10.0 mi SSE 11.5 mph - N/A   Scattered Clouds
6:35 PM 77.7 °F 73.6 °F 87% 29.81 in 10.0 mi South 9.2 mph - N/A   Scattered Clouds
6:55 PM 79.3 °F 74.1 °F 84% 29.81 in 10.0 mi South 9.2 mph - N/A   Clear
7:15 PM 77.5 °F 73.8 °F 88% 29.77 in 10.0 mi South 10.4 mph - N/A   Scattered Clouds
7:35 PM 72.7 °F 70.3 °F 92% 29.78 in 1.2 mi SSE 3.5 mph 24.2 mph 0.22 in Rain , Thunderstorm Heavy Thunderstorms and Rain
7:55 PM 70.7 °F 70.7 °F 100% 29.77 in 7.0 mi SSW 4.6 mph - 0.23 in Rain , Thunderstorm Light Thunderstorms and Rain
8:15 PM 72.0 °F 72.0 °F 100% 29.76 in 7.0 mi SW 9.2 mph - 0.01 in Rain , Thunderstorm Light Thunderstorms and Rain
8:35 PM 74.1 °F 70.3 °F 88% 29.76 in 10.0 mi SW 15.0 mph 21.9 mph 0.01 in Thunderstorm Mostly Cloudy
8:55 PM 73.6 °F 69.8 °F 88% 29.78 in 10.0 mi SW 13.8 mph 19.6 mph 0.01 in Thunderstorm Scattered Clouds
9:15 PM 74.3 °F 68.5 °F 82% 29.78 in 10.0 mi SW 13.8 mph 18.4 mph N/A   Scattered Clouds
9:35 PM 74.3 °F 68.2 °F 81% 29.78 in 10.0 mi SW 12.7 mph - N/A   Scattered Clouds
9:55 PM 74.3 °F 68.4 °F 82% 29.79 in 10.0 mi SW 12.7 mph 17.3 mph N/A   Mostly Cloudy
10:15 PM 73.8 °F 68.5 °F 84% 29.80 in 10.0 mi SW 8.1 mph - N/A   Overcast
10:35 PM 73.4 °F 68.9 °F 86% 29.81 in 10.0 mi SW 5.8 mph - N/A   Overcast
10:55 PM 72.7 °F 69.1 °F 88% 29.81 in 10.0 mi SW 5.8 mph - N/A   Mostly Cloudy
11:15 PM 72.3 °F 69.3 °F 90% 29.81 in 10.0 mi South 5.8 mph - N/A   Mostly Cloudy
11:35 PM 71.2 °F 69.3 °F 93% 29.80 in 10.0 mi South 4.6 mph - N/A   Mostly Cloudy
11:55 PM 71.2 °F 68.9 °F 92% 29.80 in 10.0 mi South 5.8 mph - N/A   Mostly Cloudy